Terminal Aerodrome Forecast
Issued by NWS Oklahoma City, OK

Home | Current Version | Previous Version | Text Only | Print | Product List | Glossary On
Versions: 1 2 3 4 5 6 7 8 9 10 11 12 13 14 15 16 17 18 19 20 21 22 23 24 25 26 27
000
FTUS44 KOUN 080520
TAFOUN
TAF
KOUN 080520Z 0806/0906 03005KT 6SM BR OVC005
     FM081700 21004KT P6SM BKN015
     FM082000 18006KT P6SM BKN025
     FM090200 14005KT P6SM BKN035=

USA.gov is the U.S. government's official web portal to all federal, state and local government web resources and services.